Time;durP1;ratioP1;P1;durP2;ratioP2;P2;SDS_P1;SDS_P2;PMS_P1;PMS_P2;Temp;Humidity;BMP_temperature;BMP_pressure;BME280_temperature;BME280_humidity;BME280_pressure;Samples;Min_cycle;Max_cycle;Signal;HPM_P1;HPM_P2
2023/12/04 00:01:46;;;;;;;22.70;10.03;;;2.10;47.20;;;;;;20676995;28;20149;-47
2023/12/04 00:11:47;;;;;;;21.73;9.30;;;2.10;39.50;;;;;;20696903;28;20476;-46
2023/12/04 00:21:47;;;;;;;21.67;10.27;;;2.00;32.40;;;;;;20703008;28;20483;-46
2023/12/04 00:31:48;;;;;;;20.00;8.40;;;2.10;30.30;;;;;;20691760;28;20045;-46
2023/12/04 00:41:48;;;;;;;23.05;8.77;;;2.30;25.20;;;;;;20674671;28;20042;-46
2023/12/04 00:51:49;;;;;;;17.35;8.27;;;2.20;23.80;;;;;;20690291;28;20060;-46
2023/12/04 01:01:50;;;;;;;21.70;9.27;;;2.20;29.70;;;;;;20697513;28;20138;-47
2023/12/04 01:11:54;;;;;;;24.27;9.73;;;2.10;41.10;;;;;;20692898;28;20056;-46
2023/12/04 01:21:54;;;;;;;20.52;9.15;;;2.00;52.50;;;;;;20701245;28;20056;-47
2023/12/04 01:31:55;;;;;;;24.05;10.05;;;2.00;68.40;;;;;;20706741;28;20967;-47
2023/12/04 01:41:55;;;;;;;22.50;9.85;;;2.00;77.70;;;;;;20703808;28;20038;-48
2023/12/04 01:51:57;;;;;;;22.65;10.38;;;2.10;82.10;;;;;;20705557;28;20033;-48
2023/12/04 02:01:58;;;;;;;26.95;10.40;;;2.10;85.30;;;;;;20706838;28;20289;-47
2023/12/04 02:11:59;;;;;;;26.17;10.10;;;2.00;66.80;;;;;;20710929;28;20049;-46
2023/12/04 02:21:59;;;;;;;24.50;9.82;;;2.10;67.60;;;;;;20694413;28;20076;-46
2023/12/04 02:32:04;;;;;;;26.38;10.80;;;2.10;69.40;;;;;;20709758;28;20187;-46
2023/12/04 02:42:04;;;;;;;24.73;10.55;;;2.10;50.00;;;;;;20707346;28;20418;-46
2023/12/04 02:52:05;;;;;;;22.30;10.23;;;2.10;41.20;;;;;;20710833;28;20301;-46
2023/12/04 03:02:05;;;;;;;21.75;9.85;;;2.20;30.00;;;;;;20706227;28;20461;-46
2023/12/04 03:12:06;;;;;;;20.90;9.93;;;2.30;20.40;;;;;;20709319;28;20046;-46
2023/12/04 03:22:07;;;;;;;22.83;9.40;;;2.20;20.20;;;;;;20691502;28;20038;-46
2023/12/04 03:32:07;;;;;;;25.50;11.07;;;2.30;15.10;;;;;;20711767;28;20674;-46
2023/12/04 03:42:08;;;;;;;22.08;9.70;;;2.30;12.00;;;;;;20698674;28;20535;-46
2023/12/04 03:52:08;;;;;;;24.60;10.90;;;2.10;12.60;;;;;;20629568;28;20042;-46
2023/12/04 04:02:09;;;;;;;20.25;8.93;;;2.10;13.10;;;;;;20621532;28;20141;-46
2023/12/04 04:12:09;;;;;;;19.92;9.45;;;2.20;4.60;;;;;;20694472;28;20068;-46
2023/12/04 04:22:10;;;;;;;19.77;8.65;;;2.20;3.10;;;;;;20709281;28;20034;-46
2023/12/04 04:32:11;;;;;;;19.67;9.10;;;2.20;1.00;;;;;;20712048;28;20048;-46
2023/12/04 04:42:12;;;;;;;18.27;8.38;;;2.20;1.00;;;;;;20710106;28;20056;-47
2023/12/04 04:52:12;;;;;;;20.65;8.68;;;2.30;1.00;;;;;;20710936;28;20069;-47
2023/12/04 05:02:13;;;;;;;19.27;8.57;;;2.40;1.00;;;;;;20707312;28;20092;-47
2023/12/04 05:12:13;;;;;;;20.90;8.38;;;2.40;1.00;;;;;;20708747;28;20405;-47
2023/12/04 05:22:14;;;;;;;20.27;9.70;;;2.30;1.00;;;;;;20710426;28;20042;-46
2023/12/04 05:32:15;;;;;;;17.53;8.23;;;2.40;1.00;;;;;;20710023;28;20625;-47
2023/12/04 05:42:16;;;;;;;18.15;8.70;;;2.50;1.00;;;;;;20716092;28;20460;-47
2023/12/04 05:52:16;;;;;;;18.50;8.77;;;2.60;1.00;;;;;;20699480;28;21805;-47
2023/12/04 06:02:17;;;;;;;16.90;8.02;;;2.50;1.00;;;;;;20708117;28;20050;-47
2023/12/04 06:12:17;;;;;;;17.73;7.95;;;2.50;1.00;;;;;;20671681;28;20174;-47
2023/12/04 06:22:19;;;;;;;16.13;7.97;;;2.50;1.00;;;;;;20707359;28;20037;-47
2023/12/04 06:32:20;;;;;;;18.13;8.93;;;2.50;1.00;;;;;;20708765;28;20511;-47
2023/12/04 06:42:21;;;;;;;16.27;8.23;;;2.60;1.00;;;;;;20699546;28;20041;-47
2023/12/04 06:52:22;;;;;;;14.52;7.60;;;2.60;1.00;;;;;;20680438;28;20050;-47
2023/12/04 07:02:22;;;;;;;13.38;7.20;;;2.60;1.00;;;;;;20709939;28;20458;-47
2023/12/04 07:12:23;;;;;;;16.38;8.13;;;2.60;1.00;;;;;;20738553;28;20042;-47
2023/12/04 07:22:24;;;;;;;22.48;9.30;;;2.50;1.00;;;;;;20728585;28;20147;-47
2023/12/04 07:32:24;;;;;;;14.85;7.05;;;2.60;1.00;;;;;;20725837;28;20128;-47
2023/12/04 07:42:25;;;;;;;17.05;8.75;;;2.60;1.00;;;;;;20721202;28;20065;-46
2023/12/04 07:52:25;;;;;;;15.38;8.23;;;2.60;1.00;;;;;;20727109;28;20049;-47
2023/12/04 08:02:26;;;;;;;15.20;7.50;;;2.60;1.00;;;;;;20736241;28;20136;-46
2023/12/04 08:12:27;;;;;;;14.70;7.13;;;2.70;1.00;;;;;;20733121;28;20057;-47
2023/12/04 08:22:27;;;;;;;16.30;6.97;;;2.70;1.00;;;;;;20753057;28;20433;-47
2023/12/04 08:32:28;;;;;;;13.43;6.60;;;2.70;1.00;;;;;;20744344;28;20506;-47
2023/12/04 08:42:30;;;;;;;14.65;6.68;;;2.70;1.00;;;;;;20743366;28;20376;-47
2023/12/04 08:52:30;;;;;;;12.98;6.45;;;2.70;1.00;;;;;;20733558;28;20156;-47
2023/12/04 09:02:31;;;;;;;11.02;6.03;;;2.70;1.00;;;;;;20734492;28;20041;-47
2023/12/04 09:12:32;;;;;;;11.20;5.95;;;2.70;1.00;;;;;;20734728;28;20499;-47
2023/12/04 09:22:34;;;;;;;11.60;5.28;;;2.80;1.00;;;;;;20725943;28;20423;-47
2023/12/04 09:32:35;;;;;;;10.88;5.95;;;3.00;1.00;;;;;;20732328;28;20048;-47
2023/12/04 09:42:36;;;;;;;10.80;5.70;;;3.20;1.00;;;;;;20736044;28;20076;-47
2023/12/04 09:52:37;;;;;;;11.88;6.20;;;3.20;1.00;;;;;;20736522;28;20695;-47
2023/12/04 10:02:39;;;;;;;11.07;5.88;;;3.10;1.00;;;;;;20735973;28;20037;-47
2023/12/04 10:12:40;;;;;;;10.02;5.80;;;3.20;1.00;;;;;;20732407;28;20050;-48
2023/12/04 10:22:53;;;;;;;12.52;5.82;;;3.30;1.00;;;;;;20723538;28;20030;-47
2023/12/04 10:33:00;;;;;;;11.02;5.93;;;3.30;1.00;;;;;;20740877;28;20080;-47
2023/12/04 10:43:12;;;;;;;11.05;5.88;;;3.30;1.00;;;;;;20746269;28;20136;-47
2023/12/04 10:53:14;;;;;;;11.23;5.68;;;3.40;1.00;;;;;;20741734;28;20042;-47
2023/12/04 11:03:25;;;;;;;14.05;7.95;;;3.40;1.00;;;;;;20729903;28;20033;-47
2023/12/04 11:13:31;;;;;;;11.43;5.93;;;3.50;1.00;;;;;;20737856;28;20050;-47
2023/12/04 11:23:33;;;;;;;11.93;6.80;;;3.50;1.00;;;;;;20731248;28;20599;-47
2023/12/04 11:33:37;;;;;;;14.80;7.00;;;3.50;1.00;;;;;;20736415;28;20044;-47
2023/12/04 11:43:42;;;;;;;10.98;6.85;;;3.60;1.00;;;;;;20750560;28;20859;-47
2023/12/04 11:53:44;;;;;;;12.85;6.85;;;3.60;1.00;;;;;;20749869;28;20049;-47
2023/12/04 12:03:44;;;;;;;14.38;8.15;;;3.70;1.00;;;;;;20741393;28;20049;-47
2023/12/04 12:13:45;;;;;;;15.85;8.40;;;3.80;1.00;;;;;;20742337;28;20195;-47
2023/12/04 12:23:46;;;;;;;17.65;8.85;;;3.90;1.00;;;;;;20747497;28;20140;-47
2023/12/04 12:33:46;;;;;;;15.80;8.25;;;3.80;1.00;;;;;;20746194;28;20565;-47
2023/12/04 12:43:51;;;;;;;14.75;8.07;;;3.70;1.00;;;;;;20742935;28;20042;-47
2023/12/04 12:53:52;;;;;;;15.70;8.32;;;3.70;1.00;;;;;;20736723;28;20038;-47
2023/12/04 13:03:52;;;;;;;18.33;8.97;;;3.70;1.00;;;;;;20738674;28;20047;-47
2023/12/04 13:13:54;;;;;;;17.80;8.90;;;3.80;1.00;;;;;;20736027;28;20480;-47
2023/12/04 13:23:54;;;;;;;15.88;7.82;;;3.70;1.00;;;;;;20741161;28;20114;-48
2023/12/04 13:33:55;;;;;;;14.00;8.02;;;3.60;1.00;;;;;;20738622;28;20440;-48
2023/12/04 13:43:57;;;;;;;17.33;7.80;;;3.60;1.00;;;;;;20742900;28;20117;-47
2023/12/04 13:54:08;;;;;;;14.00;7.93;;;3.60;1.00;;;;;;20736210;28;21028;-48
2023/12/04 14:04:09;;;;;;;17.02;8.25;;;3.40;1.00;;;;;;20738134;28;20049;-47
2023/12/04 14:14:12;;;;;;;17.00;7.78;;;3.50;1.00;;;;;;20731185;28;20217;-47
2023/12/04 14:24:13;;;;;;;12.40;6.90;;;3.50;1.00;;;;;;20731722;28;20034;-47
2023/12/04 14:34:14;;;;;;;14.73;7.75;;;3.70;1.00;;;;;;20730675;28;20042;-48
2023/12/04 14:44:15;;;;;;;13.67;7.13;;;3.60;1.00;;;;;;20724362;28;21857;-48
2023/12/04 14:54:21;;;;;;;25.05;12.02;;;3.60;1.00;;;;;;20731241;28;20472;-47
2023/12/04 15:24:53;;;;;;;14.32;8.32;;;3.60;1.00;;;;;;20726094;28;20037;-48
2023/12/04 15:34:54;;;;;;;14.32;8.10;;;3.50;1.00;;;;;;20747901;28;20060;-48
2023/12/04 15:44:55;;;;;;;14.75;8.02;;;3.50;1.00;;;;;;20744661;28;20049;-47
2023/12/04 15:54:55;;;;;;;13.80;8.00;;;3.40;1.00;;;;;;20741782;28;20045;-48
2023/12/04 16:04:56;;;;;;;14.25;7.10;;;3.40;1.00;;;;;;20679221;28;20054;-48
2023/12/04 16:14:56;;;;;;;15.13;8.07;;;3.40;1.00;;;;;;20737160;28;22856;-47
2023/12/04 16:24:57;;;;;;;14.73;8.60;;;3.50;1.00;;;;;;20741691;28;20037;-48
2023/12/04 16:34:57;;;;;;;17.70;9.65;;;3.50;1.00;;;;;;20744175;28;20071;-48
2023/12/04 16:44:58;;;;;;;18.30;9.43;;;3.50;1.00;;;;;;20748751;28;20116;-47
2023/12/04 16:54:59;;;;;;;15.85;9.23;;;3.40;1.00;;;;;;20752144;28;20049;-47
2023/12/04 17:04:59;;;;;;;19.20;10.40;;;3.30;6.40;;;;;;20736939;28;20042;-47
2023/12/04 17:15:00;;;;;;;20.35;11.38;;;3.20;11.30;;;;;;20734158;28;20471;-47
2023/12/04 17:25:01;;;;;;;20.20;11.25;;;3.20;17.00;;;;;;20734151;28;20095;-47
2023/12/04 17:35:02;;;;;;;19.00;10.98;;;3.20;21.60;;;;;;20736125;28;20049;-47
2023/12/04 17:45:03;;;;;;;22.23;12.15;;;3.30;24.60;;;;;;20734744;28;20050;-47
2023/12/04 17:55:05;;;;;;;19.80;11.50;;;3.20;29.80;;;;;;20727765;28;20057;-47
2023/12/04 18:05:10;;;;;;;23.92;12.95;;;3.10;36.60;;;;;;20727258;28;20073;-47
2023/12/04 18:15:11;;;;;;;23.88;12.85;;;3.10;46.60;;;;;;20728859;28;20045;-47
2023/12/04 18:25:12;;;;;;;20.75;12.40;;;3.00;51.40;;;;;;20729611;28;20119;-47
2023/12/04 18:35:14;;;;;;;22.02;11.77;;;3.00;74.30;;;;;;20719244;28;20072;-47
2023/12/04 18:45:15;;;;;;;18.98;11.20;;;2.80;92.80;;;;;;20718439;28;20033;-47
2023/12/04 18:55:16;;;;;;;17.73;11.27;;;2.70;97.70;;;;;;20696682;28;20154;-47
2023/12/04 19:05:16;;;;;;;19.38;11.35;;;2.80;99.90;;;;;;20731005;28;20502;-47
2023/12/04 19:15:18;;;;;;;21.15;12.50;;;2.70;99.90;;;;;;20714188;28;20061;-46
2023/12/04 19:25:18;;;;;;;21.52;13.50;;;2.70;99.90;;;;;;20717338;28;20399;-46
2023/12/04 19:35:20;;;;;;;26.23;15.18;;;2.70;99.90;;;;;;20736352;28;20069;-47
2023/12/04 19:45:21;;;;;;;28.92;16.58;;;2.70;99.90;;;;;;20733788;28;20096;-46
2023/12/04 19:55:22;;;;;;;31.42;18.25;;;2.70;99.90;;;;;;20740818;28;20042;-46
2023/12/04 20:05:22;;;;;;;30.70;18.83;;;2.70;99.90;;;;;;20721524;28;20467;-46
2023/12/04 20:15:23;;;;;;;33.17;18.27;;;2.70;99.90;;;;;;20725673;28;20042;-46
2023/12/04 20:25:26;;;;;;;33.10;18.73;;;2.80;99.90;;;;;;20731199;28;20033;-46
2023/12/04 20:35:26;;;;;;;31.23;17.38;;;2.70;99.90;;;;;;20731465;28;20254;-46
2023/12/04 20:45:28;;;;;;;32.13;19.20;;;2.70;99.90;;;;;;20737492;28;20883;-46
2023/12/04 20:55:28;;;;;;;31.52;18.35;;;2.80;99.90;;;;;;20731073;28;20537;-47
2023/12/04 21:05:29;;;;;;;33.10;18.60;;;2.80;99.90;;;;;;20737448;28;21641;-46
2023/12/04 21:15:30;;;;;;;34.33;19.42;;;2.90;99.90;;;;;;20728742;28;20037;-46
2023/12/04 21:25:30;;;;;;;31.83;17.70;;;2.90;99.90;;;;;;20728770;28;20088;-46
2023/12/04 21:35:31;;;;;;;31.80;18.48;;;2.90;99.90;;;;;;20744703;28;20481;-47
2023/12/04 21:45:32;;;;;;;30.42;17.42;;;3.00;99.90;;;;;;20747073;28;20038;-47
2023/12/04 21:55:32;;;;;;;31.90;17.13;;;3.00;99.90;;;;;;20741494;28;20041;-47
2023/12/04 22:05:34;;;;;;;31.77;17.95;;;3.00;99.90;;;;;;20736841;28;20053;-46
2023/12/04 22:15:35;;;;;;;30.75;17.60;;;3.10;99.90;;;;;;20740761;28;20065;-47
2023/12/04 22:25:36;;;;;;;32.03;17.73;;;3.20;99.90;;;;;;20749163;28;20480;-46
2023/12/04 22:35:37;;;;;;;29.75;17.30;;;3.30;99.90;;;;;;20741575;28;20049;-47
2023/12/04 22:45:37;;;;;;;34.63;19.13;;;3.20;99.90;;;;;;20726165;28;20542;-47
2023/12/04 22:55:38;;;;;;;34.97;19.02;;;3.20;99.90;;;;;;20713104;28;20160;-47
2023/12/04 23:05:38;;;;;;;34.03;19.73;;;3.10;99.90;;;;;;20728131;28;20592;-46
2023/12/04 23:15:39;;;;;;;38.88;21.27;;;3.10;99.90;;;;;;20733724;28;20041;-46
2023/12/04 23:25:39;;;;;;;38.63;20.80;;;3.10;99.90;;;;;;20736515;28;20480;-46
2023/12/04 23:35:40;;;;;;;40.10;22.10;;;3.20;99.90;;;;;;20746162;28;20455;-46
2023/12/04 23:45:41;;;;;;;37.95;20.08;;;3.30;99.90;;;;;;20744600;28;20026;-47
2023/12/04 23:55:42;;;;;;;38.53;21.98;;;3.20;99.90;;;;;;20734909;28;20046;-47
